createdAt,value
2018-07-28T00:02:26.877Z,4.70
2018-07-28T00:05:01.956Z,4.40
2018-07-28T00:07:37.056Z,4.83
2018-07-28T00:10:13.555Z,4.60
2018-07-28T00:12:48.632Z,4.30
2018-07-28T00:15:23.716Z,4.43
2018-07-28T00:17:58.816Z,4.47
2018-07-28T00:20:33.919Z,5.70
2018-07-28T00:23:08.956Z,4.70
2018-07-28T00:25:49.614Z,5.13
2018-07-28T00:28:24.715Z,4.70
2018-07-28T00:30:59.784Z,4.70
2018-07-28T00:33:34.854Z,5.13
2018-07-28T00:36:10.004Z,4.40
2018-07-28T00:38:44.981Z,4.57
2018-07-28T00:41:20.140Z,5.03
2018-07-28T00:43:55.285Z,5.03
2018-07-28T00:46:30.333Z,4.67
2018-07-28T00:49:06.144Z,4.87
2018-07-28T00:51:41.252Z,4.63
2018-07-28T00:54:16.340Z,5.03
2018-07-28T00:56:51.332Z,4.90
2018-07-28T00:59:26.423Z,4.70
2018-07-28T01:02:01.448Z,5.20
2018-07-28T01:04:36.488Z,4.70
2018-07-28T01:07:11.456Z,4.80
2018-07-28T01:09:46.595Z,5.03
2018-07-28T01:12:21.656Z,5.73
2018-07-28T01:14:56.802Z,5.13
2018-07-28T01:17:31.938Z,4.30
2018-07-28T01:20:07.488Z,4.97
2018-07-28T01:22:42.643Z,5.20
2018-07-28T01:25:17.616Z,5.10
2018-07-28T01:27:52.609Z,4.53
2018-07-28T01:30:29.491Z,5.07
2018-07-28T01:33:04.416Z,4.83
2018-07-28T01:35:39.463Z,5.17
2018-07-28T01:38:14.592Z,4.57
2018-07-28T01:40:49.864Z,4.83
2018-07-28T01:43:25.700Z,5.13
2018-07-28T01:46:00.786Z,4.60
2018-07-28T01:48:35.903Z,5.10
2018-07-28T01:51:10.969Z,4.53
2018-07-28T01:53:45.900Z,4.50
2018-07-28T01:56:20.836Z,5.10
2018-07-28T01:58:56.000Z,4.70
2018-07-28T02:01:31.105Z,5.23
2018-07-28T02:04:06.271Z,4.90
2018-07-28T02:06:41.376Z,5.00
2018-07-28T02:09:16.371Z,5.07
2018-07-28T02:11:51.492Z,5.43
2018-07-28T02:14:26.528Z,5.30
2018-07-28T02:17:01.596Z,5.03
2018-07-28T02:19:36.580Z,5.17
2018-07-28T02:22:11.631Z,5.00
2018-07-28T02:24:46.728Z,5.53
2018-07-28T02:27:21.857Z,5.27
2018-07-28T02:29:56.886Z,5.13
2018-07-28T02:32:31.924Z,4.83
2018-07-28T02:35:07.548Z,5.63
2018-07-28T02:37:42.532Z,4.53
2018-07-28T02:40:17.601Z,4.83
2018-07-28T02:42:52.760Z,5.07
2018-07-28T02:45:27.936Z,5.47
2018-07-28T02:48:02.993Z,5.33
2018-07-28T02:50:38.008Z,4.83
2018-07-28T02:53:13.096Z,4.80
2018-07-28T02:55:48.224Z,5.60
2018-07-28T02:58:23.328Z,5.57
2018-07-28T03:00:58.376Z,5.80
2018-07-28T03:03:33.304Z,5.73
2018-07-28T03:06:08.556Z,5.80
2018-07-28T03:08:43.468Z,5.70
2018-07-28T03:11:18.572Z,5.47
2018-07-28T03:13:53.636Z,5.80
2018-07-28T03:16:28.608Z,6.50
2018-07-28T03:19:03.716Z,5.67
2018-07-28T03:21:38.716Z,5.73
2018-07-28T03:24:14.384Z,5.07
2018-07-28T03:26:49.604Z,5.97
2018-07-28T03:29:24.683Z,5.47
2018-07-28T03:31:59.599Z,5.73
2018-07-28T03:34:34.660Z,5.40
2018-07-28T03:37:09.784Z,5.60
2018-07-28T03:39:44.516Z,5.80
2018-07-28T03:42:19.399Z,5.27
2018-07-28T03:44:54.432Z,5.33
2018-07-28T03:47:29.528Z,5.70
2018-07-28T03:50:04.939Z,6.07
2018-07-28T03:52:39.859Z,5.40
2018-07-28T03:55:15.565Z,5.60
2018-07-28T03:57:50.536Z,4.90
2018-07-28T04:00:25.631Z,5.90
2018-07-28T04:03:00.915Z,5.67
2018-07-28T04:05:36.036Z,5.67
2018-07-28T04:08:11.091Z,5.73
2018-07-28T04:10:46.073Z,5.93
2018-07-28T04:13:21.293Z,5.87
2018-07-28T04:15:56.357Z,5.63
2018-07-28T04:24:44.371Z,5.57
2018-07-28T04:27:19.665Z,5.80
2018-07-28T04:29:54.728Z,5.80
2018-07-28T04:32:29.908Z,5.60
2018-07-28T04:35:05.214Z,5.57
2018-07-28T04:37:40.398Z,5.17
2018-07-28T04:40:15.386Z,5.40
2018-07-28T04:42:50.340Z,5.80
2018-07-28T04:45:25.432Z,5.93
2018-07-28T04:48:00.500Z,5.80
2018-07-28T04:50:35.747Z,5.23
2018-07-28T04:53:10.864Z,5.30
2018-07-28T04:55:46.000Z,5.93
2018-07-28T04:58:21.160Z,5.80
2018-07-28T05:00:56.275Z,5.40
2018-07-28T05:03:31.324Z,5.47
2018-07-28T05:06:06.555Z,5.33
2018-07-28T05:08:41.660Z,5.77
2018-07-28T05:11:16.788Z,5.93
2018-07-28T05:13:51.720Z,5.50
2018-07-28T05:16:26.860Z,5.70
2018-07-28T05:19:01.931Z,5.63
2018-07-28T05:21:37.116Z,5.80
2018-07-28T05:24:12.168Z,5.40
2018-07-28T05:26:46.923Z,6.03
2018-07-28T05:29:21.929Z,5.87
2018-07-28T05:31:56.928Z,6.07
2018-07-28T05:34:32.032Z,5.87
2018-07-28T05:37:07.059Z,5.63
2018-07-28T05:39:42.008Z,5.77
2018-07-28T05:42:17.063Z,5.40
2018-07-28T05:44:52.105Z,5.70
2018-07-28T05:47:27.030Z,5.97
2018-07-28T05:50:03.177Z,5.90
2018-07-28T05:52:38.262Z,6.17
2018-07-28T05:55:13.343Z,6.60
2018-07-28T05:57:48.330Z,6.43
2018-07-28T06:00:23.394Z,6.17
2018-07-28T06:03:01.874Z,5.80
2018-07-28T06:05:37.848Z,5.43
2018-07-28T06:08:12.884Z,5.63
2018-07-28T06:10:48.080Z,6.07
2018-07-28T06:13:23.161Z,5.67
2018-07-28T06:15:57.894Z,5.87
2018-07-28T06:18:32.772Z,5.37
2018-07-28T06:21:08.523Z,6.10
2018-07-28T06:23:43.821Z,6.43
2018-07-28T06:26:18.806Z,6.53
2018-07-28T06:28:53.940Z,5.80
2018-07-28T06:31:28.872Z,6.83
2018-07-28T06:34:13.900Z,5.73
2018-07-28T06:36:48.993Z,5.40
2018-07-28T06:39:23.940Z,6.50
2018-07-28T06:41:58.980Z,6.67
2018-07-28T06:44:33.987Z,6.23
2018-07-28T06:47:09.125Z,6.33
2018-07-28T06:49:44.284Z,6.50
2018-07-28T06:52:19.384Z,6.97
2018-07-28T06:54:54.952Z,6.90
2018-07-28T06:57:30.008Z,6.90
2018-07-28T07:00:07.243Z,6.40
2018-07-28T07:02:42.444Z,5.73
2018-07-28T07:05:17.464Z,6.20
2018-07-28T07:07:52.500Z,6.27
2018-07-28T07:10:27.651Z,6.63
2018-07-28T07:13:02.784Z,6.73
2018-07-28T07:15:37.707Z,6.20
2018-07-28T07:18:12.844Z,6.57
2018-07-28T07:20:48.031Z,6.80
2018-07-28T07:23:23.012Z,6.10
2018-07-28T07:25:58.164Z,6.30
2018-07-28T07:28:33.216Z,6.50
2018-07-28T07:31:08.200Z,7.17
2018-07-28T07:33:43.311Z,6.57
2018-07-28T07:36:18.379Z,6.47
2018-07-28T07:38:53.252Z,7.37
2018-07-28T07:41:28.204Z,7.00
2018-07-28T07:44:03.327Z,6.90
2018-07-28T07:46:38.380Z,6.93
2018-07-28T07:49:13.776Z,6.87
2018-07-28T07:51:48.987Z,8.07
2018-07-28T07:54:23.980Z,7.47
2018-07-28T07:56:58.972Z,8.07
2018-07-28T07:59:34.129Z,7.83
2018-07-28T08:02:09.240Z,8.60
2018-07-28T08:04:44.315Z,7.97
2018-07-28T08:07:19.472Z,7.47
2018-07-28T08:09:54.596Z,7.70
2018-07-28T08:12:29.628Z,7.73
2018-07-28T08:15:05.100Z,6.83
2018-07-28T08:17:40.240Z,8.30
2018-07-28T08:20:15.286Z,8.30
2018-07-28T08:22:50.284Z,7.50
2018-07-28T08:25:25.787Z,7.80
2018-07-28T08:28:00.985Z,7.53
2018-07-28T08:30:36.034Z,8.40
2018-07-28T08:33:11.160Z,7.50
2018-07-28T08:35:46.289Z,7.73
2018-07-28T08:38:21.387Z,7.90
2018-07-28T08:40:56.380Z,7.63
2018-07-28T08:43:31.661Z,7.20
2018-07-28T08:46:06.845Z,7.93
2018-07-28T08:48:41.989Z,8.20
2018-07-28T08:51:17.184Z,8.37
2018-07-28T08:53:52.164Z,7.47
2018-07-28T08:56:27.341Z,7.47
2018-07-28T08:59:02.568Z,7.43
2018-07-28T09:01:37.716Z,6.73
2018-07-28T09:04:12.796Z,7.43
2018-07-28T09:06:47.784Z,7.73
2018-07-28T09:09:22.880Z,8.47
2018-07-28T09:11:58.387Z,8.40
2018-07-28T09:14:33.539Z,8.47
2018-07-28T09:17:08.552Z,7.97
2018-07-28T09:19:43.488Z,7.53
2018-07-28T09:22:18.592Z,8.70
2018-07-28T09:24:53.671Z,7.37
2018-07-28T09:27:28.657Z,6.40
2018-07-28T09:30:04.396Z,7.63
2018-07-28T09:32:39.551Z,8.33
2018-07-28T09:35:14.584Z,7.63
2018-07-28T09:37:49.837Z,9.53
2018-07-28T09:40:24.776Z,8.43
2018-07-28T09:42:59.860Z,8.60
2018-07-28T09:45:34.968Z,8.40
2018-07-28T09:48:10.004Z,8.23
2018-07-28T09:50:45.008Z,8.30
2018-07-28T09:53:20.121Z,8.03
2018-07-28T09:55:55.295Z,8.73
2018-07-28T09:58:30.300Z,7.50
2018-07-28T10:01:10.768Z,9.07
2018-07-28T10:03:46.352Z,8.47
2018-07-28T10:06:21.575Z,8.10
2018-07-28T10:08:56.649Z,8.47
2018-07-28T10:11:31.735Z,9.47
2018-07-28T10:14:06.999Z,9.23
2018-07-28T10:16:42.222Z,9.33
2018-07-28T10:19:17.303Z,8.67
2018-07-28T10:21:52.342Z,8.70
2018-07-28T10:24:27.445Z,9.90
2018-07-28T10:27:02.545Z,11.20
2018-07-28T10:29:37.627Z,10.23
2018-07-28T10:32:12.616Z,10.60
2018-07-28T10:34:47.594Z,9.87
2018-07-28T10:37:22.627Z,9.67
2018-07-28T10:39:57.724Z,9.27
2018-07-28T10:42:32.829Z,10.63
2018-07-28T10:45:08.020Z,8.37
2018-07-28T10:47:43.149Z,10.77
2018-07-28T10:50:18.221Z,10.80
2018-07-28T10:52:53.372Z,10.00
2018-07-28T10:55:28.350Z,10.13
2018-07-28T10:58:03.211Z,10.97
2018-07-28T11:00:38.057Z,10.93
2018-07-28T11:03:13.012Z,10.57
2018-07-28T11:05:48.120Z,10.47
2018-07-28T11:08:23.287Z,10.27
2018-07-28T11:10:58.421Z,10.60
2018-07-28T11:13:33.498Z,11.33
2018-07-28T11:16:08.616Z,11.30
2018-07-28T11:18:43.723Z,10.47
2018-07-28T11:21:18.816Z,11.67
2018-07-28T11:23:58.774Z,10.23
2018-07-28T11:26:33.862Z,10.33
2018-07-28T11:29:09.074Z,9.13
2018-07-28T11:31:56.528Z,8.00
2018-07-28T11:34:43.012Z,9.10
2018-07-28T11:37:27.908Z,9.03
2018-07-28T11:40:14.392Z,9.17
2018-07-28T11:43:01.102Z,8.37
2018-07-28T11:45:36.098Z,8.97
2018-07-28T11:48:11.260Z,8.07
2018-07-28T11:50:46.504Z,8.17
2018-07-28T11:53:21.615Z,8.40
2018-07-28T11:55:57.096Z,6.90
2018-07-28T11:58:32.144Z,8.77
2018-07-28T12:01:07.024Z,9.47
2018-07-28T12:03:42.136Z,8.10
2018-07-28T12:06:17.208Z,8.83
2018-07-28T12:08:52.371Z,8.33
2018-07-28T12:11:27.413Z,6.73
2018-07-28T12:14:02.492Z,7.27
2018-07-28T12:16:37.444Z,7.47
2018-07-28T12:19:12.561Z,7.73
2018-07-28T12:21:47.748Z,8.90
2018-07-28T12:24:22.747Z,9.43
2018-07-28T12:26:58.268Z,8.33
2018-07-28T12:29:33.361Z,8.77
2018-07-28T12:32:08.418Z,8.10
2018-07-28T12:34:43.490Z,7.97
2018-07-28T12:37:18.527Z,7.07
2018-07-28T12:39:53.635Z,9.90
2018-07-28T12:42:28.807Z,8.43
2018-07-28T12:45:03.957Z,8.00
2018-07-28T12:47:38.987Z,7.10
2018-07-28T12:50:13.950Z,6.50
2018-07-28T12:52:48.899Z,5.80
2018-07-28T12:55:24.007Z,5.80
2018-07-28T12:57:59.034Z,6.13
2018-07-28T13:00:34.184Z,5.67
2018-07-28T13:03:09.131Z,5.77
2018-07-28T13:05:44.832Z,5.57
2018-07-28T13:08:19.920Z,5.30
2018-07-28T13:10:55.058Z,5.20
2018-07-28T13:13:30.240Z,6.17
2018-07-28T13:16:05.768Z,5.77
2018-07-28T13:18:40.781Z,5.97
2018-07-28T13:21:15.800Z,5.43
2018-07-28T13:23:50.851Z,5.07
2018-07-28T13:26:26.040Z,5.13
2018-07-28T13:29:01.256Z,4.37
2018-07-28T13:31:36.254Z,4.80
2018-07-28T13:34:11.475Z,4.37
2018-07-28T13:36:47.524Z,4.50
2018-07-28T13:39:22.694Z,4.30
2018-07-28T13:41:57.675Z,4.50
2018-07-28T13:44:32.693Z,4.67
2018-07-28T13:47:08.869Z,4.33
2018-07-28T13:49:44.101Z,4.63
2018-07-28T13:52:19.176Z,4.40
2018-07-28T13:54:55.116Z,4.27
2018-07-28T13:57:30.183Z,4.40
2018-07-28T14:00:06.369Z,4.37
2018-07-28T14:02:41.508Z,4.53
2018-07-28T14:05:16.639Z,4.43
2018-07-28T14:07:51.795Z,4.80
2018-07-28T14:10:26.852Z,4.47
2018-07-28T14:13:02.260Z,4.17
2018-07-28T14:15:37.216Z,4.50
2018-07-28T14:18:12.279Z,4.20
2018-07-28T14:20:47.360Z,4.00
2018-07-28T14:23:22.525Z,4.67
2018-07-28T14:25:57.723Z,4.20
2018-07-28T14:28:32.908Z,3.90
2018-07-28T14:31:07.990Z,4.60
2018-07-28T14:33:42.972Z,4.50
2018-07-28T14:36:18.104Z,3.87
2018-07-28T14:38:53.244Z,4.13
2018-07-28T14:41:28.296Z,4.40
2018-07-28T14:44:03.312Z,4.10
2018-07-28T14:46:38.447Z,4.10
2018-07-28T14:49:13.556Z,3.97
2018-07-28T14:51:48.544Z,4.33
2018-07-28T14:54:23.540Z,4.10
2018-07-28T14:56:58.866Z,4.30
2018-07-28T14:59:33.920Z,4.40
2018-07-28T15:02:08.864Z,4.60
2018-07-28T15:04:43.885Z,4.53
2018-07-28T15:07:19.048Z,4.47
2018-07-28T15:09:54.535Z,4.87
2018-07-28T15:12:29.628Z,4.97
2018-07-28T15:15:05.452Z,4.77
2018-07-28T15:17:41.291Z,5.10
2018-07-28T15:20:16.331Z,5.07
2018-07-28T15:22:51.324Z,5.10
2018-07-28T15:25:26.393Z,5.37
2018-07-28T15:28:01.329Z,5.40
2018-07-28T15:30:36.444Z,4.30
2018-07-28T15:33:11.568Z,3.70
2018-07-28T15:35:46.688Z,3.23
2018-07-28T15:38:21.652Z,3.23
2018-07-28T15:40:56.652Z,3.10
2018-07-28T15:43:31.727Z,3.40
2018-07-28T15:46:07.440Z,4.20
2018-07-28T15:48:43.281Z,3.37
2018-07-28T15:51:18.208Z,4.03
2018-07-28T15:53:53.188Z,3.90
2018-07-28T15:56:28.280Z,4.60
2018-07-28T15:59:03.413Z,4.90
2018-07-28T16:01:38.610Z,5.10
2018-07-28T16:04:13.608Z,5.50
2018-07-28T16:06:48.743Z,5.53
2018-07-28T16:09:23.826Z,6.00
2018-07-28T16:11:58.939Z,6.10
2018-07-28T16:14:33.879Z,7.40
2018-07-28T16:17:09.120Z,6.97
2018-07-28T16:19:44.084Z,7.00
2018-07-28T16:22:19.109Z,7.60
2018-07-28T16:24:54.232Z,7.07
2018-07-28T16:27:29.235Z,6.37
2018-07-28T16:30:05.686Z,7.60
2018-07-28T16:32:41.057Z,7.50
2018-07-28T16:35:16.152Z,6.83
2018-07-28T16:37:51.245Z,5.83
2018-07-28T16:40:26.223Z,5.30
2018-07-28T16:43:01.248Z,5.63
2018-07-28T16:45:36.403Z,6.27
2018-07-28T16:48:11.605Z,6.20
2018-07-28T16:50:46.915Z,5.57
2018-07-28T16:53:22.243Z,4.97
2018-07-28T16:55:57.368Z,5.37
2018-07-28T16:58:32.488Z,5.57
2018-07-28T17:01:18.931Z,5.00
2018-07-28T17:03:53.897Z,6.20
2018-07-28T17:06:29.080Z,5.13
2018-07-28T17:09:08.272Z,5.80
2018-07-28T17:11:43.667Z,4.87
2018-07-28T17:14:18.649Z,4.90
2018-07-28T17:16:53.732Z,4.90
2018-07-28T17:19:28.930Z,5.07
2018-07-28T17:22:04.110Z,5.10
2018-07-28T17:24:39.188Z,5.10
2018-07-28T17:27:14.233Z,5.43
2018-07-28T17:29:49.244Z,4.63
2018-07-28T17:32:24.344Z,5.10
2018-07-28T17:34:59.190Z,4.03
2018-07-28T17:37:34.156Z,4.43
2018-07-28T17:40:09.161Z,4.00
2018-07-28T17:42:44.244Z,4.70
2018-07-28T17:45:19.482Z,4.97
2018-07-28T17:47:54.476Z,4.53
2018-07-28T17:50:29.638Z,4.03
2018-07-28T17:53:04.719Z,4.10
2018-07-28T17:55:39.796Z,4.20
2018-07-28T17:58:14.828Z,4.20
2018-07-28T18:00:50.042Z,4.47
2018-07-28T18:03:25.217Z,3.97
2018-07-28T18:06:00.336Z,3.33
2018-07-28T18:08:35.457Z,4.07
2018-07-28T18:11:10.517Z,4.40
2018-07-28T18:13:45.496Z,3.90
2018-07-28T18:16:20.870Z,3.80
2018-07-28T18:18:56.177Z,4.93
2018-07-28T18:21:31.441Z,3.40
2018-07-28T18:24:06.759Z,4.13
2018-07-28T18:26:41.909Z,4.00
2018-07-28T18:29:17.013Z,4.23
2018-07-28T18:31:52.168Z,3.23
2018-07-28T18:34:27.236Z,3.60
2018-07-28T18:37:02.172Z,4.03
2018-07-28T18:39:37.216Z,3.83
2018-07-28T18:42:12.207Z,3.27
2018-07-28T18:44:47.183Z,3.77
2018-07-28T18:47:22.120Z,3.97
2018-07-28T18:49:57.125Z,3.97
2018-07-28T18:52:32.187Z,3.57
2018-07-28T18:55:07.379Z,3.60
2018-07-28T18:57:42.492Z,4.07
2018-07-28T19:00:17.508Z,3.40
2018-07-28T19:02:52.586Z,3.70
2018-07-28T19:05:27.655Z,3.90
2018-07-28T19:08:02.850Z,3.57
2018-07-28T19:10:37.624Z,3.67
2018-07-28T19:13:18.144Z,4.07
2018-07-28T19:15:53.112Z,4.13
2018-07-28T19:18:33.591Z,3.50
2018-07-28T19:21:08.640Z,4.27
2018-07-28T19:23:49.203Z,4.20
2018-07-28T19:26:24.144Z,4.80
2018-07-28T19:29:04.677Z,4.47
2018-07-28T19:31:39.656Z,3.70
2018-07-28T19:34:14.753Z,4.73
2018-07-28T19:37:24.896Z,4.20
2018-07-28T19:40:00.080Z,4.17
2018-07-28T19:42:40.967Z,4.03
2018-07-28T19:45:15.935Z,4.10
2018-07-28T19:47:51.112Z,4.00
2018-07-28T19:50:26.236Z,4.20
2018-07-28T19:53:01.677Z,4.23
2018-07-28T19:55:36.783Z,3.97
2018-07-28T19:58:11.793Z,4.30
2018-07-28T20:00:46.998Z,4.07
2018-07-28T20:03:22.080Z,4.00
2018-07-28T20:05:57.044Z,4.20
2018-07-28T20:08:32.132Z,4.03
2018-07-28T20:11:07.237Z,3.50
2018-07-28T20:13:42.295Z,4.30
2018-07-28T20:16:17.312Z,4.23
2018-07-28T20:18:52.467Z,4.73
2018-07-28T20:21:27.680Z,4.87
2018-07-28T20:24:02.780Z,4.93
2018-07-28T20:26:37.847Z,4.50
2018-07-28T20:29:12.579Z,5.90
2018-07-28T20:31:47.417Z,5.43
2018-07-28T20:34:22.580Z,5.10
2018-07-28T20:36:57.672Z,4.70
2018-07-28T20:39:32.848Z,6.03
2018-07-28T20:42:07.948Z,4.50
2018-07-28T20:44:43.079Z,4.33
2018-07-28T20:47:18.271Z,4.00
2018-07-28T20:49:53.243Z,5.00
2018-07-28T20:52:28.384Z,4.60
2018-07-28T20:55:03.594Z,5.13
2018-07-28T20:57:38.591Z,5.20
2018-07-28T21:00:13.579Z,5.33
2018-07-28T21:02:48.861Z,5.10
2018-07-28T21:05:24.112Z,5.30
2018-07-28T21:07:59.348Z,7.67
2018-07-28T21:10:34.572Z,8.77
2018-07-28T21:13:09.623Z,8.47
2018-07-28T21:15:44.783Z,12.23
2018-07-28T21:18:19.992Z,7.60
2018-07-28T21:20:55.119Z,7.33
2018-07-28T21:23:30.163Z,6.67
2018-07-28T21:26:05.463Z,7.00
2018-07-28T21:28:40.585Z,6.93
2018-07-28T21:31:15.580Z,6.60
2018-07-28T21:33:50.533Z,7.50
2018-07-28T21:36:25.672Z,6.90
2018-07-28T21:39:00.717Z,6.63
2018-07-28T21:41:36.065Z,6.67
2018-07-28T21:44:11.324Z,6.20
2018-07-28T21:46:46.552Z,6.37
2018-07-28T21:49:21.586Z,7.07
2018-07-28T21:51:56.572Z,6.57
2018-07-28T21:54:32.036Z,6.63
2018-07-28T21:57:07.204Z,6.20
2018-07-28T21:59:42.271Z,6.57
2018-07-28T22:02:17.448Z,6.63
2018-07-28T22:04:52.446Z,6.23
2018-07-28T22:07:27.429Z,6.07
2018-07-28T22:10:02.419Z,6.13
2018-07-28T22:12:37.593Z,5.50
2018-07-28T22:15:12.507Z,5.47
2018-07-28T22:17:47.484Z,5.27
2018-07-28T22:20:22.416Z,5.80
2018-07-28T22:22:57.545Z,6.13
2018-07-28T22:25:32.521Z,5.10
2018-07-28T22:28:07.468Z,5.73
2018-07-28T22:30:42.551Z,6.10
2018-07-28T22:33:17.559Z,5.60
2018-07-28T22:35:52.608Z,5.13
2018-07-28T22:38:27.696Z,5.73
2018-07-28T22:41:02.696Z,5.00
2018-07-28T22:43:37.672Z,5.27
2018-07-28T22:46:12.895Z,5.03
2018-07-28T22:48:47.797Z,5.53
2018-07-28T22:51:22.896Z,5.87
2018-07-28T22:53:58.352Z,4.80
2018-07-28T22:56:33.311Z,5.70
2018-07-28T22:59:08.404Z,6.03
2018-07-28T23:01:43.736Z,4.63
2018-07-28T23:04:18.928Z,5.53
2018-07-28T23:06:53.991Z,6.00
2018-07-28T23:09:29.052Z,5.97
2018-07-28T23:12:04.032Z,5.63
2018-07-28T23:14:39.068Z,6.07
2018-07-28T23:17:14.129Z,6.87
2018-07-28T23:19:49.244Z,6.27
2018-07-28T23:22:24.559Z,6.03
2018-07-28T23:24:59.795Z,6.40
2018-07-28T23:27:34.924Z,6.10
2018-07-28T23:30:11.167Z,6.17
2018-07-28T23:32:46.141Z,6.53
2018-07-28T23:35:21.060Z,6.40
2018-07-28T23:37:56.189Z,7.10
2018-07-28T23:40:31.335Z,7.53
2018-07-28T23:43:06.436Z,6.73
2018-07-28T23:45:41.739Z,6.57
2018-07-28T23:48:16.798Z,6.90
2018-07-28T23:50:51.760Z,6.47
2018-07-28T23:53:26.711Z,6.87
2018-07-28T23:56:01.788Z,6.50
2018-07-28T23:58:36.956Z,6.17
